sensor_id;sensor_type;location;lat;lon;timestamp;temperature;humidity
55771;DHT22;41687;-33.234;-60.334;2023-04-29T00:02:08;19.90;81.70
55771;DHT22;41687;-33.234;-60.334;2023-04-29T00:04:36;19.90;81.70
55771;DHT22;41687;-33.234;-60.334;2023-04-29T00:07:04;19.90;81.60
55771;DHT22;41687;-33.234;-60.334;2023-04-29T00:09:34;19.90;81.80
55771;DHT22;41687;-33.234;-60.334;2023-04-29T00:12:03;19.80;83.20
55771;DHT22;41687;-33.234;-60.334;2023-04-29T00:14:30;19.70;82.90
55771;DHT22;41687;-33.234;-60.334;2023-04-29T00:16:58;19.70;83.50
55771;DHT22;41687;-33.234;-60.334;2023-04-29T00:19:26;19.60;84.60
55771;DHT22;41687;-33.234;-60.334;2023-04-29T00:21:55;19.60;84.60
55771;DHT22;41687;-33.234;-60.334;2023-04-29T00:24:24;19.60;84.80
55771;DHT22;41687;-33.234;-60.334;2023-04-29T00:26:52;19.50;85.30
55771;DHT22;41687;-33.234;-60.334;2023-04-29T00:29:19;19.50;85.20
55771;DHT22;41687;-33.234;-60.334;2023-04-29T00:31:49;19.50;86.40
55771;DHT22;41687;-33.234;-60.334;2023-04-29T00:34:17;19.50;85.90
55771;DHT22;41687;-33.234;-60.334;2023-04-29T00:36:45;19.40;85.70
55771;DHT22;41687;-33.234;-60.334;2023-04-29T00:39:12;19.30;87.00
55771;DHT22;41687;-33.234;-60.334;2023-04-29T00:41:41;19.30;87.80
55771;DHT22;41687;-33.234;-60.334;2023-04-29T00:44:08;19.30;88.30
55771;DHT22;41687;-33.234;-60.334;2023-04-29T00:46:37;19.20;87.70
55771;DHT22;41687;-33.234;-60.334;2023-04-29T00:49:05;19.20;89.40
55771;DHT22;41687;-33.234;-60.334;2023-04-29T00:51:36;19.20;88.60
55771;DHT22;41687;-33.234;-60.334;2023-04-29T00:54:04;19.10;90.20
55771;DHT22;41687;-33.234;-60.334;2023-04-29T00:56:34;19.20;89.00
55771;DHT22;41687;-33.234;-60.334;2023-04-29T00:59:04;19.20;89.70
55771;DHT22;41687;-33.234;-60.334;2023-04-29T01:01:33;19.30;89.30
55771;DHT22;41687;-33.234;-60.334;2023-04-29T01:04:02;19.20;90.30
55771;DHT22;41687;-33.234;-60.334;2023-04-29T01:15:21;19.00;90.40
55771;DHT22;41687;-33.234;-60.334;2023-04-29T01:18:32;18.90;90.70
55771;DHT22;41687;-33.234;-60.334;2023-04-29T01:20:53;19.00;90.50
55771;DHT22;41687;-33.234;-60.334;2023-04-29T01:23:28;19.00;90.50
55771;DHT22;41687;-33.234;-60.334;2023-04-29T01:25:57;19.00;90.50
55771;DHT22;41687;-33.234;-60.334;2023-04-29T01:31:50;18.90;90.30
55771;DHT22;41687;-33.234;-60.334;2023-04-29T01:34:26;18.90;90.30
55771;DHT22;41687;-33.234;-60.334;2023-04-29T01:37:13;19.00;89.60
55771;DHT22;41687;-33.234;-60.334;2023-04-29T01:44:56;18.80;90.20
55771;DHT22;41687;-33.234;-60.334;2023-04-29T01:47:29;18.90;90.00
55771;DHT22;41687;-33.234;-60.334;2023-04-29T01:49:56;18.90;89.90
55771;DHT22;41687;-33.234;-60.334;2023-04-29T01:52:24;18.80;89.50
55771;DHT22;41687;-33.234;-60.334;2023-04-29T01:54:55;18.80;89.60
55771;DHT22;41687;-33.234;-60.334;2023-04-29T01:57:25;18.90;90.00
55771;DHT22;41687;-33.234;-60.334;2023-04-29T02:00:01;18.70;90.40
55771;DHT22;41687;-33.234;-60.334;2023-04-29T02:02:31;18.60;90.60
55771;DHT22;41687;-33.234;-60.334;2023-04-29T02:05:08;18.60;90.20
55771;DHT22;41687;-33.234;-60.334;2023-04-29T02:07:41;18.70;90.50
55771;DHT22;41687;-33.234;-60.334;2023-04-29T02:10:10;18.60;90.60
55771;DHT22;41687;-33.234;-60.334;2023-04-29T02:12:40;18.50;90.70
55771;DHT22;41687;-33.234;-60.334;2023-04-29T02:15:09;18.50;90.60
55771;DHT22;41687;-33.234;-60.334;2023-04-29T02:17:36;18.60;90.70
55771;DHT22;41687;-33.234;-60.334;2023-04-29T02:20:04;18.50;90.70
55771;DHT22;41687;-33.234;-60.334;2023-04-29T02:22:32;18.50;90.60
55771;DHT22;41687;-33.234;-60.334;2023-04-29T02:25:00;18.50;90.80
55771;DHT22;41687;-33.234;-60.334;2023-04-29T02:27:28;18.50;90.50
55771;DHT22;41687;-33.234;-60.334;2023-04-29T02:29:56;18.50;90.50
55771;DHT22;41687;-33.234;-60.334;2023-04-29T02:32:25;18.30;91.20
55771;DHT22;41687;-33.234;-60.334;2023-04-29T02:34:53;18.30;91.10
55771;DHT22;41687;-33.234;-60.334;2023-04-29T02:37:21;18.20;91.50
55771;DHT22;41687;-33.234;-60.334;2023-04-29T02:39:49;18.30;91.40
55771;DHT22;41687;-33.234;-60.334;2023-04-29T02:42:16;18.20;91.60
55771;DHT22;41687;-33.234;-60.334;2023-04-29T02:44:44;18.30;91.40
55771;DHT22;41687;-33.234;-60.334;2023-04-29T02:47:11;18.30;91.10
55771;DHT22;41687;-33.234;-60.334;2023-04-29T02:49:39;18.40;91.40
55771;DHT22;41687;-33.234;-60.334;2023-04-29T02:52:07;18.30;91.40
55771;DHT22;41687;-33.234;-60.334;2023-04-29T02:54:35;18.30;91.40
55771;DHT22;41687;-33.234;-60.334;2023-04-29T02:57:03;18.20;91.70
55771;DHT22;41687;-33.234;-60.334;2023-04-29T02:59:31;18.30;91.00
55771;DHT22;41687;-33.234;-60.334;2023-04-29T03:01:59;18.20;91.60
55771;DHT22;41687;-33.234;-60.334;2023-04-29T03:04:28;18.30;91.40
55771;DHT22;41687;-33.234;-60.334;2023-04-29T03:06:56;18.30;91.20
55771;DHT22;41687;-33.234;-60.334;2023-04-29T03:09:26;18.30;91.10
55771;DHT22;41687;-33.234;-60.334;2023-04-29T03:11:54;18.30;91.50
55771;DHT22;41687;-33.234;-60.334;2023-04-29T03:14:21;18.40;91.30
55771;DHT22;41687;-33.234;-60.334;2023-04-29T03:16:50;18.40;91.20
55771;DHT22;41687;-33.234;-60.334;2023-04-29T03:19:18;18.40;91.20
55771;DHT22;41687;-33.234;-60.334;2023-04-29T03:21:46;18.40;91.20
55771;DHT22;41687;-33.234;-60.334;2023-04-29T03:24:14;18.30;91.70
55771;DHT22;41687;-33.234;-60.334;2023-04-29T03:26:42;18.30;91.90
55771;DHT22;41687;-33.234;-60.334;2023-04-29T03:29:10;18.30;91.60
55771;DHT22;41687;-33.234;-60.334;2023-04-29T03:31:37;18.30;91.80
55771;DHT22;41687;-33.234;-60.334;2023-04-29T03:34:05;18.30;91.50
55771;DHT22;41687;-33.234;-60.334;2023-04-29T03:36:37;18.20;91.70
55771;DHT22;41687;-33.234;-60.334;2023-04-29T03:39:08;18.30;91.90
55771;DHT22;41687;-33.234;-60.334;2023-04-29T03:41:36;18.20;92.10
55771;DHT22;41687;-33.234;-60.334;2023-04-29T03:44:04;18.20;92.20
55771;DHT22;41687;-33.234;-60.334;2023-04-29T03:46:31;18.30;91.70
55771;DHT22;41687;-33.234;-60.334;2023-04-29T03:49:01;18.20;92.10
55771;DHT22;41687;-33.234;-60.334;2023-04-29T03:51:29;18.10;92.40
55771;DHT22;41687;-33.234;-60.334;2023-04-29T03:54:12;18.20;92.00
55771;DHT22;41687;-33.234;-60.334;2023-04-29T03:56:40;18.10;92.30
55771;DHT22;41687;-33.234;-60.334;2023-04-29T03:59:08;18.00;92.70
55771;DHT22;41687;-33.234;-60.334;2023-04-29T04:01:37;18.10;92.50
55771;DHT22;41687;-33.234;-60.334;2023-04-29T04:04:06;18.00;92.80
55771;DHT22;41687;-33.234;-60.334;2023-04-29T04:06:38;18.00;93.00
55771;DHT22;41687;-33.234;-60.334;2023-04-29T04:09:05;18.00;93.10
55771;DHT22;41687;-33.234;-60.334;2023-04-29T04:11:33;18.00;92.90
55771;DHT22;41687;-33.234;-60.334;2023-04-29T04:14:03;18.00;92.90
55771;DHT22;41687;-33.234;-60.334;2023-04-29T04:16:31;18.00;93.00
55771;DHT22;41687;-33.234;-60.334;2023-04-29T04:19:00;18.00;92.70
55771;DHT22;41687;-33.234;-60.334;2023-04-29T04:21:27;18.00;92.90
55771;DHT22;41687;-33.234;-60.334;2023-04-29T04:24:04;18.00;93.20
55771;DHT22;41687;-33.234;-60.334;2023-04-29T04:26:32;18.10;92.70
55771;DHT22;41687;-33.234;-60.334;2023-04-29T04:28:59;18.00;93.20
55771;DHT22;41687;-33.234;-60.334;2023-04-29T04:31:37;18.00;93.30
55771;DHT22;41687;-33.234;-60.334;2023-04-29T04:34:06;18.00;93.10
55771;DHT22;41687;-33.234;-60.334;2023-04-29T04:36:34;18.10;92.60
55771;DHT22;41687;-33.234;-60.334;2023-04-29T04:39:02;17.90;93.30
55771;DHT22;41687;-33.234;-60.334;2023-04-29T04:41:31;17.80;93.30
55771;DHT22;41687;-33.234;-60.334;2023-04-29T04:44:00;17.80;93.40
55771;DHT22;41687;-33.234;-60.334;2023-04-29T04:46:41;17.70;93.50
55771;DHT22;41687;-33.234;-60.334;2023-04-29T04:49:27;17.60;93.60
55771;DHT22;41687;-33.234;-60.334;2023-04-29T04:51:54;17.60;93.40
55771;DHT22;41687;-33.234;-60.334;2023-04-29T04:54:23;17.60;93.00
55771;DHT22;41687;-33.234;-60.334;2023-04-29T04:57:00;17.60;92.80
55771;DHT22;41687;-33.234;-60.334;2023-04-29T04:59:32;17.50;92.70
55771;DHT22;41687;-33.234;-60.334;2023-04-29T05:02:00;17.50;92.50
55771;DHT22;41687;-33.234;-60.334;2023-04-29T05:04:28;17.50;92.50
55771;DHT22;41687;-33.234;-60.334;2023-04-29T05:06:56;17.40;92.60
55771;DHT22;41687;-33.234;-60.334;2023-04-29T05:09:26;17.40;92.40
55771;DHT22;41687;-33.234;-60.334;2023-04-29T05:11:54;17.40;92.50
55771;DHT22;41687;-33.234;-60.334;2023-04-29T05:14:22;17.40;92.40
55771;DHT22;41687;-33.234;-60.334;2023-04-29T05:16:50;17.30;92.30
55771;DHT22;41687;-33.234;-60.334;2023-04-29T05:19:19;17.30;92.10
55771;DHT22;41687;-33.234;-60.334;2023-04-29T05:21:46;17.30;92.20
55771;DHT22;41687;-33.234;-60.334;2023-04-29T05:24:16;17.30;92.30
55771;DHT22;41687;-33.234;-60.334;2023-04-29T05:26:45;17.30;92.10
55771;DHT22;41687;-33.234;-60.334;2023-04-29T05:29:13;17.30;92.10
55771;DHT22;41687;-33.234;-60.334;2023-04-29T05:31:50;17.30;92.40
55771;DHT22;41687;-33.234;-60.334;2023-04-29T05:34:18;17.20;92.50
55771;DHT22;41687;-33.234;-60.334;2023-04-29T05:36:46;17.20;92.50
55771;DHT22;41687;-33.234;-60.334;2023-04-29T05:39:13;17.10;92.60
55771;DHT22;41687;-33.234;-60.334;2023-04-29T05:41:42;17.10;92.60
55771;DHT22;41687;-33.234;-60.334;2023-04-29T05:44:18;17.10;92.80
55771;DHT22;41687;-33.234;-60.334;2023-04-29T05:46:46;17.10;92.70
55771;DHT22;41687;-33.234;-60.334;2023-04-29T05:49:14;17.10;92.80
55771;DHT22;41687;-33.234;-60.334;2023-04-29T05:51:42;17.10;92.80
55771;DHT22;41687;-33.234;-60.334;2023-04-29T05:54:10;17.10;92.90
55771;DHT22;41687;-33.234;-60.334;2023-04-29T05:56:37;17.00;93.10
55771;DHT22;41687;-33.234;-60.334;2023-04-29T05:59:05;17.10;93.10
55771;DHT22;41687;-33.234;-60.334;2023-04-29T06:01:33;17.00;93.10
55771;DHT22;41687;-33.234;-60.334;2023-04-29T06:04:00;17.00;93.30
55771;DHT22;41687;-33.234;-60.334;2023-04-29T06:06:47;16.90;93.50
55771;DHT22;41687;-33.234;-60.334;2023-04-29T06:09:22;16.80;93.60
55771;DHT22;41687;-33.234;-60.334;2023-04-29T06:11:53;16.80;93.70
55771;DHT22;41687;-33.234;-60.334;2023-04-29T06:14:20;16.80;93.70
55771;DHT22;41687;-33.234;-60.334;2023-04-29T06:16:48;16.90;93.70
55771;DHT22;41687;-33.234;-60.334;2023-04-29T06:19:16;16.90;93.60
55771;DHT22;41687;-33.234;-60.334;2023-04-29T06:21:44;16.70;93.90
55771;DHT22;41687;-33.234;-60.334;2023-04-29T06:24:12;16.70;94.00
55771;DHT22;41687;-33.234;-60.334;2023-04-29T06:26:40;16.80;93.80
55771;DHT22;41687;-33.234;-60.334;2023-04-29T06:29:07;16.80;93.90
55771;DHT22;41687;-33.234;-60.334;2023-04-29T06:31:36;16.80;94.10
55771;DHT22;41687;-33.234;-60.334;2023-04-29T06:34:05;16.70;94.00
55771;DHT22;41687;-33.234;-60.334;2023-04-29T06:36:36;16.70;94.20
55771;DHT22;41687;-33.234;-60.334;2023-04-29T06:39:27;16.70;94.30
55771;DHT22;41687;-33.234;-60.334;2023-04-29T06:42:29;16.70;94.10
55771;DHT22;41687;-33.234;-60.334;2023-04-29T06:45:23;16.80;94.30
55771;DHT22;41687;-33.234;-60.334;2023-04-29T06:48:06;16.70;94.30
55771;DHT22;41687;-33.234;-60.334;2023-04-29T06:50:56;16.70;94.30
55771;DHT22;41687;-33.234;-60.334;2023-04-29T06:53:24;16.80;94.40
55771;DHT22;41687;-33.234;-60.334;2023-04-29T06:55:51;16.70;94.10
55771;DHT22;41687;-33.234;-60.334;2023-04-29T06:58:20;16.70;94.60
55771;DHT22;41687;-33.234;-60.334;2023-04-29T07:00:49;16.70;94.60
55771;DHT22;41687;-33.234;-60.334;2023-04-29T07:03:17;16.60;94.80
55771;DHT22;41687;-33.234;-60.334;2023-04-29T07:05:45;16.60;94.80
55771;DHT22;41687;-33.234;-60.334;2023-04-29T07:08:13;16.60;95.20
55771;DHT22;41687;-33.234;-60.334;2023-04-29T07:10:41;16.70;95.00
55771;DHT22;41687;-33.234;-60.334;2023-04-29T07:13:08;16.60;95.10
55771;DHT22;41687;-33.234;-60.334;2023-04-29T07:15:36;16.50;95.40
55771;DHT22;41687;-33.234;-60.334;2023-04-29T07:18:04;16.60;95.60
55771;DHT22;41687;-33.234;-60.334;2023-04-29T07:20:34;16.50;95.60
55771;DHT22;41687;-33.234;-60.334;2023-04-29T07:23:02;16.50;95.80
55771;DHT22;41687;-33.234;-60.334;2023-04-29T07:25:30;16.50;96.10
55771;DHT22;41687;-33.234;-60.334;2023-04-29T07:27:58;16.40;96.10
55771;DHT22;41687;-33.234;-60.334;2023-04-29T07:30:26;16.50;96.00
55771;DHT22;41687;-33.234;-60.334;2023-04-29T07:32:53;16.50;96.10
55771;DHT22;41687;-33.234;-60.334;2023-04-29T07:35:20;16.50;96.20
55771;DHT22;41687;-33.234;-60.334;2023-04-29T07:37:48;16.50;96.30
55771;DHT22;41687;-33.234;-60.334;2023-04-29T07:40:15;16.50;95.90
55771;DHT22;41687;-33.234;-60.334;2023-04-29T07:42:44;16.50;96.20
55771;DHT22;41687;-33.234;-60.334;2023-04-29T07:45:12;16.50;96.60
55771;DHT22;41687;-33.234;-60.334;2023-04-29T07:47:41;16.60;96.50
55771;DHT22;41687;-33.234;-60.334;2023-04-29T07:50:08;16.50;96.70
55771;DHT22;41687;-33.234;-60.334;2023-04-29T07:52:38;16.50;96.90
55771;DHT22;41687;-33.234;-60.334;2023-04-29T07:55:06;16.50;96.70
55771;DHT22;41687;-33.234;-60.334;2023-04-29T07:57:33;16.50;96.90
55771;DHT22;41687;-33.234;-60.334;2023-04-29T08:00:01;16.40;96.90
55771;DHT22;41687;-33.234;-60.334;2023-04-29T08:02:29;16.50;96.90
55771;DHT22;41687;-33.234;-60.334;2023-04-29T08:04:56;16.40;97.30
55771;DHT22;41687;-33.234;-60.334;2023-04-29T08:07:24;16.40;97.30
55771;DHT22;41687;-33.234;-60.334;2023-04-29T08:09:51;16.40;97.60
55771;DHT22;41687;-33.234;-60.334;2023-04-29T08:12:19;16.40;97.30
55771;DHT22;41687;-33.234;-60.334;2023-04-29T08:14:46;16.40;97.20
55771;DHT22;41687;-33.234;-60.334;2023-04-29T08:17:14;16.40;97.70
55771;DHT22;41687;-33.234;-60.334;2023-04-29T08:19:42;16.40;97.70
55771;DHT22;41687;-33.234;-60.334;2023-04-29T08:22:11;16.40;97.20
55771;DHT22;41687;-33.234;-60.334;2023-04-29T08:24:39;16.50;96.90
55771;DHT22;41687;-33.234;-60.334;2023-04-29T08:27:09;16.50;97.40
55771;DHT22;41687;-33.234;-60.334;2023-04-29T08:29:36;16.50;97.30
55771;DHT22;41687;-33.234;-60.334;2023-04-29T08:32:04;16.50;97.20
55771;DHT22;41687;-33.234;-60.334;2023-04-29T08:34:32;16.50;97.30
55771;DHT22;41687;-33.234;-60.334;2023-04-29T08:37:02;16.50;97.10
55771;DHT22;41687;-33.234;-60.334;2023-04-29T08:39:30;16.60;97.30
55771;DHT22;41687;-33.234;-60.334;2023-04-29T08:41:58;16.60;97.20
55771;DHT22;41687;-33.234;-60.334;2023-04-29T08:44:26;16.60;97.50
55771;DHT22;41687;-33.234;-60.334;2023-04-29T08:46:53;16.50;97.80
55771;DHT22;41687;-33.234;-60.334;2023-04-29T08:49:21;16.50;97.70
55771;DHT22;41687;-33.234;-60.334;2023-04-29T08:51:49;16.50;97.80
55771;DHT22;41687;-33.234;-60.334;2023-04-29T08:54:20;16.50;97.70
55771;DHT22;41687;-33.234;-60.334;2023-04-29T08:56:48;16.60;97.50
55771;DHT22;41687;-33.234;-60.334;2023-04-29T08:59:17;16.60;97.60
55771;DHT22;41687;-33.234;-60.334;2023-04-29T09:01:47;16.50;98.10
55771;DHT22;41687;-33.234;-60.334;2023-04-29T09:07:23;16.50;98.30
55771;DHT22;41687;-33.234;-60.334;2023-04-29T09:09:51;16.50;98.10
55771;DHT22;41687;-33.234;-60.334;2023-04-29T09:12:19;16.40;98.30
55771;DHT22;41687;-33.234;-60.334;2023-04-29T09:14:47;16.40;98.00
55771;DHT22;41687;-33.234;-60.334;2023-04-29T09:17:15;16.40;98.50
55771;DHT22;41687;-33.234;-60.334;2023-04-29T09:19:43;16.40;98.70
55771;DHT22;41687;-33.234;-60.334;2023-04-29T09:22:11;16.30;98.50
55771;DHT22;41687;-33.234;-60.334;2023-04-29T09:24:40;16.30;98.80
55771;DHT22;41687;-33.234;-60.334;2023-04-29T09:27:09;16.30;98.80
55771;DHT22;41687;-33.234;-60.334;2023-04-29T09:30:01;16.30;98.80
55771;DHT22;41687;-33.234;-60.334;2023-04-29T09:32:28;16.30;98.90
55771;DHT22;41687;-33.234;-60.334;2023-04-29T09:34:56;16.30;98.80
55771;DHT22;41687;-33.234;-60.334;2023-04-29T09:37:25;16.40;98.70
55771;DHT22;41687;-33.234;-60.334;2023-04-29T09:39:54;16.40;98.70
55771;DHT22;41687;-33.234;-60.334;2023-04-29T09:42:22;16.50;98.50
55771;DHT22;41687;-33.234;-60.334;2023-04-29T09:44:50;16.40;98.70
55771;DHT22;41687;-33.234;-60.334;2023-04-29T09:47:29;16.30;99.00
55771;DHT22;41687;-33.234;-60.334;2023-04-29T09:50:10;16.30;99.20
55771;DHT22;41687;-33.234;-60.334;2023-04-29T09:52:42;16.30;99.30
55771;DHT22;41687;-33.234;-60.334;2023-04-29T09:55:10;16.30;99.10
55771;DHT22;41687;-33.234;-60.334;2023-04-29T09:57:39;16.40;98.70
55771;DHT22;41687;-33.234;-60.334;2023-04-29T10:00:07;16.40;98.80
55771;DHT22;41687;-33.234;-60.334;2023-04-29T10:02:41;16.30;99.30
55771;DHT22;41687;-33.234;-60.334;2023-04-29T10:05:09;16.30;98.90
55771;DHT22;41687;-33.234;-60.334;2023-04-29T10:07:39;16.30;99.20
55771;DHT22;41687;-33.234;-60.334;2023-04-29T10:10:08;16.20;99.30
55771;DHT22;41687;-33.234;-60.334;2023-04-29T10:12:39;16.20;99.50
55771;DHT22;41687;-33.234;-60.334;2023-04-29T10:17:51;16.30;99.40
55771;DHT22;41687;-33.234;-60.334;2023-04-29T10:20:23;16.20;99.30
55771;DHT22;41687;-33.234;-60.334;2023-04-29T10:22:52;16.10;99.90
55771;DHT22;41687;-33.234;-60.334;2023-04-29T10:25:23;16.10;99.80
55771;DHT22;41687;-33.234;-60.334;2023-04-29T10:27:51;16.10;99.50
55771;DHT22;41687;-33.234;-60.334;2023-04-29T10:30:20;16.10;99.90
55771;DHT22;41687;-33.234;-60.334;2023-04-29T10:32:49;16.10;99.60
55771;DHT22;41687;-33.234;-60.334;2023-04-29T10:35:19;16.10;99.70
55771;DHT22;41687;-33.234;-60.334;2023-04-29T10:37:49;16.10;99.70
55771;DHT22;41687;-33.234;-60.334;2023-04-29T10:42:53;15.90;99.90
55771;DHT22;41687;-33.234;-60.334;2023-04-29T10:45:23;16.10;99.80
55771;DHT22;41687;-33.234;-60.334;2023-04-29T10:50:38;16.10;99.80
55771;DHT22;41687;-33.234;-60.334;2023-04-29T10:53:08;16.00;99.80
55771;DHT22;41687;-33.234;-60.334;2023-04-29T10:55:37;16.20;99.40
55771;DHT22;41687;-33.234;-60.334;2023-04-29T10:58:05;16.20;99.60
55771;DHT22;41687;-33.234;-60.334;2023-04-29T11:00:53;16.20;99.70
55771;DHT22;41687;-33.234;-60.334;2023-04-29T11:03:50;16.30;99.40
55771;DHT22;41687;-33.234;-60.334;2023-04-29T11:06:49;16.40;99.30
55771;DHT22;41687;-33.234;-60.334;2023-04-29T11:14:36;19.40;93.60
55771;DHT22;41687;-33.234;-60.334;2023-04-29T11:17:13;20.10;91.90
55771;DHT22;41687;-33.234;-60.334;2023-04-29T11:19:49;20.30;91.40
55771;DHT22;41687;-33.234;-60.334;2023-04-29T11:24:59;22.50;84.90
55771;DHT22;41687;-33.234;-60.334;2023-04-29T11:27:33;23.50;79.00
55771;DHT22;41687;-33.234;-60.334;2023-04-29T11:30:02;24.30;76.50
55771;DHT22;41687;-33.234;-60.334;2023-04-29T11:32:33;24.20;73.20
55771;DHT22;41687;-33.234;-60.334;2023-04-29T11:35:17;24.40;75.90
55771;DHT22;41687;-33.234;-60.334;2023-04-29T11:37:46;25.20;70.90
55771;DHT22;41687;-33.234;-60.334;2023-04-29T11:40:14;25.10;70.00
55771;DHT22;41687;-33.234;-60.334;2023-04-29T11:42:47;25.60;73.20
55771;DHT22;41687;-33.234;-60.334;2023-04-29T11:45:18;25.90;68.90
55771;DHT22;41687;-33.234;-60.334;2023-04-29T11:47:47;26.50;67.60
55771;DHT22;41687;-33.234;-60.334;2023-04-29T11:50:16;26.50;70.10
55771;DHT22;41687;-33.234;-60.334;2023-04-29T11:52:46;26.20;68.80
55771;DHT22;41687;-33.234;-60.334;2023-04-29T11:55:14;26.10;65.80
55771;DHT22;41687;-33.234;-60.334;2023-04-29T11:57:41;26.30;66.70
55771;DHT22;41687;-33.234;-60.334;2023-04-29T12:00:10;25.70;67.40
55771;DHT22;41687;-33.234;-60.334;2023-04-29T12:02:42;25.10;68.10
55771;DHT22;41687;-33.234;-60.334;2023-04-29T12:05:10;25.10;71.40
55771;DHT22;41687;-33.234;-60.334;2023-04-29T12:07:38;25.20;68.80
55771;DHT22;41687;-33.234;-60.334;2023-04-29T12:10:10;24.60;69.60
55771;DHT22;41687;-33.234;-60.334;2023-04-29T12:12:39;24.40;69.40
55771;DHT22;41687;-33.234;-60.334;2023-04-29T12:15:13;24.20;71.50
55771;DHT22;41687;-33.234;-60.334;2023-04-29T12:17:42;24.00;70.30
55771;DHT22;41687;-33.234;-60.334;2023-04-29T12:20:10;23.40;72.70
55771;DHT22;41687;-33.234;-60.334;2023-04-29T12:22:38;23.90;74.30
55771;DHT22;41687;-33.234;-60.334;2023-04-29T12:25:06;23.70;73.10
55771;DHT22;41687;-33.234;-60.334;2023-04-29T12:27:38;23.40;74.50
55771;DHT22;41687;-33.234;-60.334;2023-04-29T12:30:07;23.70;72.60
55771;DHT22;41687;-33.234;-60.334;2023-04-29T12:32:35;23.70;72.40
55771;DHT22;41687;-33.234;-60.334;2023-04-29T12:35:02;23.30;73.20
55771;DHT22;41687;-33.234;-60.334;2023-04-29T12:37:30;23.20;73.60
55771;DHT22;41687;-33.234;-60.334;2023-04-29T12:39:58;22.80;74.50
55771;DHT22;41687;-33.234;-60.334;2023-04-29T12:42:31;22.80;75.40
55771;DHT22;41687;-33.234;-60.334;2023-04-29T12:45:02;22.90;73.70
55771;DHT22;41687;-33.234;-60.334;2023-04-29T12:47:32;23.00;75.90
55771;DHT22;41687;-33.234;-60.334;2023-04-29T12:50:04;22.90;74.00
55771;DHT22;41687;-33.234;-60.334;2023-04-29T12:52:32;22.90;75.60
55771;DHT22;41687;-33.234;-60.334;2023-04-29T12:55:00;23.10;75.50
55771;DHT22;41687;-33.234;-60.334;2023-04-29T12:57:27;23.10;74.10
55771;DHT22;41687;-33.234;-60.334;2023-04-29T12:59:55;23.00;74.80
55771;DHT22;41687;-33.234;-60.334;2023-04-29T13:02:23;23.00;75.00
55771;DHT22;41687;-33.234;-60.334;2023-04-29T13:04:50;23.00;75.10
55771;DHT22;41687;-33.234;-60.334;2023-04-29T13:07:18;23.00;76.20
55771;DHT22;41687;-33.234;-60.334;2023-04-29T13:09:46;22.80;75.60
55771;DHT22;41687;-33.234;-60.334;2023-04-29T13:12:13;23.20;75.70
55771;DHT22;41687;-33.234;-60.334;2023-04-29T13:14:41;23.00;75.10
55771;DHT22;41687;-33.234;-60.334;2023-04-29T13:17:08;22.70;75.70
55771;DHT22;41687;-33.234;-60.334;2023-04-29T13:19:36;22.80;76.00
55771;DHT22;41687;-33.234;-60.334;2023-04-29T13:22:04;23.20;76.50
55771;DHT22;41687;-33.234;-60.334;2023-04-29T13:24:32;23.20;76.10
55771;DHT22;41687;-33.234;-60.334;2023-04-29T13:27:01;22.70;75.70
55771;DHT22;41687;-33.234;-60.334;2023-04-29T13:29:30;22.60;76.60
55771;DHT22;41687;-33.234;-60.334;2023-04-29T13:31:57;22.70;77.20
55771;DHT22;41687;-33.234;-60.334;2023-04-29T13:34:25;23.00;77.20
55771;DHT22;41687;-33.234;-60.334;2023-04-29T13:36:52;23.00;76.40
55771;DHT22;41687;-33.234;-60.334;2023-04-29T13:39:20;22.80;77.50
55771;DHT22;41687;-33.234;-60.334;2023-04-29T13:41:49;22.30;78.20
55771;DHT22;41687;-33.234;-60.334;2023-04-29T13:44:17;22.10;77.00
55771;DHT22;41687;-33.234;-60.334;2023-04-29T13:46:44;22.20;78.90
55771;DHT22;41687;-33.234;-60.334;2023-04-29T13:49:12;22.20;77.40
55771;DHT22;41687;-33.234;-60.334;2023-04-29T13:51:40;21.80;78.50
55771;DHT22;41687;-33.234;-60.334;2023-04-29T13:54:07;22.00;79.30
55771;DHT22;41687;-33.234;-60.334;2023-04-29T13:56:35;21.60;78.70
55771;DHT22;41687;-33.234;-60.334;2023-04-29T13:59:02;21.70;79.30
55771;DHT22;41687;-33.234;-60.334;2023-04-29T14:01:30;21.60;79.40
55771;DHT22;41687;-33.234;-60.334;2023-04-29T14:03:58;21.60;79.80
55771;DHT22;41687;-33.234;-60.334;2023-04-29T14:06:25;21.50;79.80
55771;DHT22;41687;-33.234;-60.334;2023-04-29T14:08:54;21.70;79.40
55771;DHT22;41687;-33.234;-60.334;2023-04-29T14:11:22;21.80;80.40
55771;DHT22;41687;-33.234;-60.334;2023-04-29T14:13:49;22.00;80.20
55771;DHT22;41687;-33.234;-60.334;2023-04-29T14:16:17;21.90;79.60
55771;DHT22;41687;-33.234;-60.334;2023-04-29T14:18:45;21.70;80.60
55771;DHT22;41687;-33.234;-60.334;2023-04-29T14:21:12;21.80;80.70
55771;DHT22;41687;-33.234;-60.334;2023-04-29T14:23:42;21.80;80.60
55771;DHT22;41687;-33.234;-60.334;2023-04-29T14:26:09;21.90;80.10
55771;DHT22;41687;-33.234;-60.334;2023-04-29T14:28:37;21.90;80.60
55771;DHT22;41687;-33.234;-60.334;2023-04-29T14:31:05;22.20;80.40
55771;DHT22;41687;-33.234;-60.334;2023-04-29T14:33:32;22.00;80.20
55771;DHT22;41687;-33.234;-60.334;2023-04-29T14:36:00;22.20;80.20
55771;DHT22;41687;-33.234;-60.334;2023-04-29T14:38:28;22.00;80.20
55771;DHT22;41687;-33.234;-60.334;2023-04-29T14:40:55;22.30;80.60
55771;DHT22;41687;-33.234;-60.334;2023-04-29T14:43:23;22.10;80.00
55771;DHT22;41687;-33.234;-60.334;2023-04-29T14:45:51;22.20;80.70
55771;DHT22;41687;-33.234;-60.334;2023-04-29T14:48:18;22.30;80.50
55771;DHT22;41687;-33.234;-60.334;2023-04-29T14:50:46;22.40;80.60
55771;DHT22;41687;-33.234;-60.334;2023-04-29T14:53:14;22.30;80.90
55771;DHT22;41687;-33.234;-60.334;2023-04-29T14:55:41;22.50;80.70
55771;DHT22;41687;-33.234;-60.334;2023-04-29T14:58:10;22.40;79.60
55771;DHT22;41687;-33.234;-60.334;2023-04-29T15:00:37;22.30;79.90
55771;DHT22;41687;-33.234;-60.334;2023-04-29T15:03:05;22.50;79.60
55771;DHT22;41687;-33.234;-60.334;2023-04-29T15:05:32;22.60;78.80
55771;DHT22;41687;-33.234;-60.334;2023-04-29T15:08:01;22.60;79.40
55771;DHT22;41687;-33.234;-60.334;2023-04-29T15:10:29;22.60;80.00
55771;DHT22;41687;-33.234;-60.334;2023-04-29T15:12:56;22.80;79.50
55771;DHT22;41687;-33.234;-60.334;2023-04-29T15:15:23;22.60;79.80
55771;DHT22;41687;-33.234;-60.334;2023-04-29T15:17:51;22.70;79.50
55771;DHT22;41687;-33.234;-60.334;2023-04-29T15:20:18;22.70;80.00
55771;DHT22;41687;-33.234;-60.334;2023-04-29T15:22:46;22.80;80.00
55771;DHT22;41687;-33.234;-60.334;2023-04-29T15:25:15;22.90;78.80
55771;DHT22;41687;-33.234;-60.334;2023-04-29T15:27:43;22.90;79.10
55771;DHT22;41687;-33.234;-60.334;2023-04-29T15:30:11;22.80;79.10
55771;DHT22;41687;-33.234;-60.334;2023-04-29T15:32:39;22.80;79.30
55771;DHT22;41687;-33.234;-60.334;2023-04-29T15:35:06;22.80;79.30
55771;DHT22;41687;-33.234;-60.334;2023-04-29T15:37:35;22.60;78.30
55771;DHT22;41687;-33.234;-60.334;2023-04-29T15:40:04;22.70;79.20